KTYS

McGhee Tyson Airport

Code ICAO KTYS
Code IATA TYS
Nom McGhee Tyson Airport
Emplacement Knoxville, Tennessee, US
Élévation 981 pieds / 299 mètres
Latitude 35.81100082
Longitude -83.99400330
METAR KTYS 080553Z 21009KT 10SM CLR 09/04 A3004 RMK AO2 SLP168 T00940044 10167 20094 53001
Informations extras Afficher cartes et CFS
Afficher NOTAMS
Piste Longueur Largeur Surface Élévation
05L 9005 ft 150 ft CON 923 ft
05R 9000 ft 150 ft ASP 938 ft
23R 9005 ft 150 ft CON 976 ft
23L 9000 ft 150 ft ASP 962 ft